sensor_id;sensor_type;location;lat;lon;timestamp;temperature;humidity
14154;DHT22;7157;53.144;7.570;2023-11-22T00:06:34;3.14;113.71
14154;DHT22;7157;53.144;7.570;2023-11-22T00:16:38;3.09;113.65
14154;DHT22;7157;53.144;7.570;2023-11-22T00:26:41;3.12;113.69
14154;DHT22;7157;53.144;7.570;2023-11-22T00:36:45;2.79;113.45
14154;DHT22;7157;53.144;7.570;2023-11-22T00:46:48;2.70;113.83
14154;DHT22;7157;53.144;7.570;2023-11-22T00:56:52;2.68;113.84
14154;DHT22;7157;53.144;7.570;2023-11-22T01:06:55;2.66;113.95
14154;DHT22;7157;53.144;7.570;2023-11-22T01:16:59;2.62;113.62
14154;DHT22;7157;53.144;7.570;2023-11-22T01:27:02;2.58;113.80
14154;DHT22;7157;53.144;7.570;2023-11-22T01:37:06;2.52;113.84
14154;DHT22;7157;53.144;7.570;2023-11-22T01:47:10;2.49;113.96
14154;DHT22;7157;53.144;7.570;2023-11-22T01:57:14;2.31;113.71
14154;DHT22;7157;53.144;7.570;2023-11-22T02:07:17;2.31;113.95
14154;DHT22;7157;53.144;7.570;2023-11-22T02:17:22;2.37;113.92
14154;DHT22;7157;53.144;7.570;2023-11-22T02:27:26;2.39;113.97
14154;DHT22;7157;53.144;7.570;2023-11-22T02:37:28;2.43;114.07
14154;DHT22;7157;53.144;7.570;2023-11-22T02:47:33;2.47;114.06
14154;DHT22;7157;53.144;7.570;2023-11-22T02:57:36;2.21;114.12
14154;DHT22;7157;53.144;7.570;2023-11-22T03:07:40;2.12;113.97
14154;DHT22;7157;53.144;7.570;2023-11-22T03:17:43;2.13;113.96
14154;DHT22;7157;53.144;7.570;2023-11-22T03:27:47;1.80;114.13
14154;DHT22;7157;53.144;7.570;2023-11-22T03:37:50;1.76;114.20
14154;DHT22;7157;53.144;7.570;2023-11-22T03:47:54;1.90;114.10
14154;DHT22;7157;53.144;7.570;2023-11-22T03:57:57;1.79;114.21
14154;DHT22;7157;53.144;7.570;2023-11-22T04:08:01;1.88;114.41
14154;DHT22;7157;53.144;7.570;2023-11-22T04:18:04;1.84;114.23
14154;DHT22;7157;53.144;7.570;2023-11-22T04:28:08;1.94;114.21
14154;DHT22;7157;53.144;7.570;2023-11-22T04:38:11;1.83;114.10
14154;DHT22;7157;53.144;7.570;2023-11-22T04:48:16;1.76;114.05
14154;DHT22;7157;53.144;7.570;2023-11-22T04:58:19;1.62;113.99
14154;DHT22;7157;53.144;7.570;2023-11-22T05:08:23;1.55;114.00
14154;DHT22;7157;53.144;7.570;2023-11-22T05:18:26;1.50;114.15
14154;DHT22;7157;53.144;7.570;2023-11-22T05:28:31;1.60;114.10
14154;DHT22;7157;53.144;7.570;2023-11-22T05:38:35;1.60;114.25
14154;DHT22;7157;53.144;7.570;2023-11-22T05:48:40;1.56;114.19
14154;DHT22;7157;53.144;7.570;2023-11-22T05:58:43;1.50;114.22
14154;DHT22;7157;53.144;7.570;2023-11-22T06:08:47;1.47;114.21
14154;DHT22;7157;53.144;7.570;2023-11-22T06:18:50;1.62;114.44
14154;DHT22;7157;53.144;7.570;2023-11-22T06:28:54;1.77;114.43
14154;DHT22;7157;53.144;7.570;2023-11-22T06:38:57;1.83;114.27
14154;DHT22;7157;53.144;7.570;2023-11-22T06:49:01;1.86;114.25
14154;DHT22;7157;53.144;7.570;2023-11-22T06:59:04;1.94;114.45
14154;DHT22;7157;53.144;7.570;2023-11-22T07:09:08;2.00;114.61
14154;DHT22;7157;53.144;7.570;2023-11-22T07:19:12;2.05;114.60
14154;DHT22;7157;53.144;7.570;2023-11-22T07:29:16;1.99;114.45
14154;DHT22;7157;53.144;7.570;2023-11-22T07:39:18;1.98;114.38
14154;DHT22;7157;53.144;7.570;2023-11-22T07:49:29;2.10;114.50
14154;DHT22;7157;53.144;7.570;2023-11-22T07:59:32;2.37;114.48
14154;DHT22;7157;53.144;7.570;2023-11-22T08:09:36;2.62;114.16
14154;DHT22;7157;53.144;7.570;2023-11-22T08:19:39;2.76;114.05
14154;DHT22;7157;53.144;7.570;2023-11-22T08:29:44;2.91;113.28
14154;DHT22;7157;53.144;7.570;2023-11-22T08:39:49;3.09;113.25
14154;DHT22;7157;53.144;7.570;2023-11-22T08:49:53;3.23;112.26
14154;DHT22;7157;53.144;7.570;2023-11-22T08:59:56;3.29;112.31
14154;DHT22;7157;53.144;7.570;2023-11-22T09:10:05;3.52;112.88
14154;DHT22;7157;53.144;7.570;2023-11-22T09:20:11;3.61;111.71
14154;DHT22;7157;53.144;7.570;2023-11-22T09:30:16;3.79;111.35
14154;DHT22;7157;53.144;7.570;2023-11-22T09:40:34;3.99;110.23
14154;DHT22;7157;53.144;7.570;2023-11-22T09:50:40;4.08;110.20
14154;DHT22;7157;53.144;7.570;2023-11-22T10:00:46;4.29;108.85
14154;DHT22;7157;53.144;7.570;2023-11-22T10:10:51;4.39;109.49
14154;DHT22;7157;53.144;7.570;2023-11-22T10:20:55;4.66;108.33
14154;DHT22;7157;53.144;7.570;2023-11-22T10:31:07;4.91;107.20
14154;DHT22;7157;53.144;7.570;2023-11-22T10:41:10;5.33;105.84
14154;DHT22;7157;53.144;7.570;2023-11-22T10:51:14;5.63;105.64
14154;DHT22;7157;53.144;7.570;2023-11-22T11:01:19;5.72;103.59
14154;DHT22;7157;53.144;7.570;2023-11-22T11:11:25;5.79;100.45
14154;DHT22;7157;53.144;7.570;2023-11-22T11:21:29;6.13;98.22
14154;DHT22;7157;53.144;7.570;2023-11-22T11:31:34;6.61;97.31
14154;DHT22;7157;53.144;7.570;2023-11-22T11:41:42;7.47;91.85
14154;DHT22;7157;53.144;7.570;2023-11-22T11:51:50;7.90;91.21
14154;DHT22;7157;53.144;7.570;2023-11-22T12:01:53;9.05;82.59
14154;DHT22;7157;53.144;7.570;2023-11-22T12:11:59;8.00;86.70
14154;DHT22;7157;53.144;7.570;2023-11-22T12:22:04;6.75;90.69
14154;DHT22;7157;53.144;7.570;2023-11-22T12:32:11;6.27;88.97
14154;DHT22;7157;53.144;7.570;2023-11-22T12:42:14;5.99;89.48
14154;DHT22;7157;53.144;7.570;2023-11-22T12:52:18;6.10;91.21
14154;DHT22;7157;53.144;7.570;2023-11-22T13:02:21;6.09;89.70
14154;DHT22;7157;53.144;7.570;2023-11-22T13:12:26;6.01;89.44
14154;DHT22;7157;53.144;7.570;2023-11-22T13:22:28;5.87;88.34
14154;DHT22;7157;53.144;7.570;2023-11-22T13:32:33;6.00;86.90
14154;DHT22;7157;53.144;7.570;2023-11-22T13:42:36;6.05;84.36
14154;DHT22;7157;53.144;7.570;2023-11-22T13:52:40;5.67;83.05
14154;DHT22;7157;53.144;7.570;2023-11-22T14:02:43;5.78;84.35
14154;DHT22;7157;53.144;7.570;2023-11-22T14:12:48;5.78;82.97
14154;DHT22;7157;53.144;7.570;2023-11-22T14:22:51;5.76;80.62
14154;DHT22;7157;53.144;7.570;2023-11-22T14:32:56;5.55;82.96
14154;DHT22;7157;53.144;7.570;2023-11-22T14:43:01;5.61;85.20
14154;DHT22;7157;53.144;7.570;2023-11-22T14:53:06;5.70;84.98
14154;DHT22;7157;53.144;7.570;2023-11-22T15:03:09;5.66;83.04
14154;DHT22;7157;53.144;7.570;2023-11-22T15:13:15;5.64;82.58
14154;DHT22;7157;53.144;7.570;2023-11-22T15:23:19;5.49;84.90
14154;DHT22;7157;53.144;7.570;2023-11-22T15:33:23;5.60;83.81
14154;DHT22;7157;53.144;7.570;2023-11-22T15:43:26;5.49;84.46
14154;DHT22;7157;53.144;7.570;2023-11-22T15:53:32;5.54;85.65
14154;DHT22;7157;53.144;7.570;2023-11-22T16:03:35;5.19;88.51
14154;DHT22;7157;53.144;7.570;2023-11-22T16:13:40;5.25;89.50
14154;DHT22;7157;53.144;7.570;2023-11-22T16:23:43;5.13;91.32
14154;DHT22;7157;53.144;7.570;2023-11-22T16:33:47;4.90;94.53
14154;DHT22;7157;53.144;7.570;2023-11-22T16:43:50;5.01;94.21
14154;DHT22;7157;53.144;7.570;2023-11-22T16:53:54;4.96;94.88
14154;DHT22;7157;53.144;7.570;2023-11-22T17:03:59;4.95;94.63
14154;DHT22;7157;53.144;7.570;2023-11-22T17:14:03;5.22;93.78
14154;DHT22;7157;53.144;7.570;2023-11-22T17:24:06;5.17;94.06
14154;DHT22;7157;53.144;7.570;2023-11-22T17:34:11;5.32;93.12
14154;DHT22;7157;53.144;7.570;2023-11-22T17:44:14;5.43;91.86
14154;DHT22;7157;53.144;7.570;2023-11-22T17:54:18;5.45;92.27
14154;DHT22;7157;53.144;7.570;2023-11-22T18:04:21;5.46;91.20
14154;DHT22;7157;53.144;7.570;2023-11-22T18:14:26;5.65;91.72
14154;DHT22;7157;53.144;7.570;2023-11-22T18:24:28;5.74;92.00
14154;DHT22;7157;53.144;7.570;2023-11-22T18:34:33;5.83;91.76
14154;DHT22;7157;53.144;7.570;2023-11-22T18:44:36;5.87;91.59
14154;DHT22;7157;53.144;7.570;2023-11-22T18:54:41;6.15;90.73
14154;DHT22;7157;53.144;7.570;2023-11-22T19:04:44;6.20;92.11
14154;DHT22;7157;53.144;7.570;2023-11-22T19:14:48;6.23;93.43
14154;DHT22;7157;53.144;7.570;2023-11-22T19:24:51;6.37;94.27
14154;DHT22;7157;53.144;7.570;2023-11-22T19:34:56;6.69;94.04
14154;DHT22;7157;53.144;7.570;2023-11-22T19:44:59;6.75;95.23
14154;DHT22;7157;53.144;7.570;2023-11-22T19:55:03;6.79;95.87
14154;DHT22;7157;53.144;7.570;2023-11-22T20:05:07;6.98;95.76
14154;DHT22;7157;53.144;7.570;2023-11-22T20:15:11;7.03;96.39
14154;DHT22;7157;53.144;7.570;2023-11-22T20:25:14;7.08;97.62
14154;DHT22;7157;53.144;7.570;2023-11-22T20:35:19;7.10;98.09
14154;DHT22;7157;53.144;7.570;2023-11-22T20:45:22;7.30;98.75
14154;DHT22;7157;53.144;7.570;2023-11-22T20:55:27;7.33;99.05
14154;DHT22;7157;53.144;7.570;2023-11-22T21:05:30;7.37;99.84
14154;DHT22;7157;53.144;7.570;2023-11-22T21:15:34;7.32;102.25
14154;DHT22;7157;53.144;7.570;2023-11-22T21:25:37;7.37;102.94
14154;DHT22;7157;53.144;7.570;2023-11-22T21:35:41;7.14;106.10
14154;DHT22;7157;53.144;7.570;2023-11-22T21:45:44;6.95;110.03
14154;DHT22;7157;53.144;7.570;2023-11-22T21:55:48;6.96;110.81
14154;DHT22;7157;53.144;7.570;2023-11-22T22:05:51;7.13;110.65
14154;DHT22;7157;53.144;7.570;2023-11-22T22:15:55;7.27;110.97
14154;DHT22;7157;53.144;7.570;2023-11-22T22:25:58;7.26;111.48
14154;DHT22;7157;53.144;7.570;2023-11-22T22:36:03;7.30;112.26
14154;DHT22;7157;53.144;7.570;2023-11-22T22:46:05;7.26;113.87
14154;DHT22;7157;53.144;7.570;2023-11-22T22:56:10;7.29;114.44
14154;DHT22;7157;53.144;7.570;2023-11-22T23:06:20;7.29;115.05
14154;DHT22;7157;53.144;7.570;2023-11-22T23:16:24;7.42;115.32
14154;DHT22;7157;53.144;7.570;2023-11-22T23:26:27;7.49;115.07
14154;DHT22;7157;53.144;7.570;2023-11-22T23:36:31;7.52;115.72
14154;DHT22;7157;53.144;7.570;2023-11-22T23:46:34;7.72;115.44
14154;DHT22;7157;53.144;7.570;2023-11-22T23:56:43;7.91;115.54
